Qairoon Hairiti, Oman
Current Conditions -  °F | °C
As of 6:55 AM on Saturday 20 Dec 2014 (Local Time) from KQTH Reporting Station
Clear Clear  
Wind Chill: 51°   Ceiling: Unl
Heat Index: 51°   Visibility: 6mi
Dew Point: 38°   Wind: 1mph
Humidity: 60%   Direction: 190°S
Pressure: 30.24"   Gusts: NA
Location:  17.25°N, 54.08°E
Report Text: KQTH 200255Z 19001KT 9999 CLR 11/03 A3024 RMK AO2A SLP235 T01080033 52011
Loading
Personal Weather Stations






























Interactive Weather Map New forecast layout! Learn more

10-Day Weather Forecast

Advertisements
Track Severe Weather on mobile